Kirkby Stephen, United Kingdom
Current Conditions -  °F | °C
As of 2:50 AM on Saturday 29 Nov 2014 (Local Time) from EGXE Reporting Station
Rain Showers Rain Showers  
Wind Chill: 48°   Ceiling: 800
Heat Index: 48°   Visibility: 2.1mi
Dew Point: 46°   Wind: 2mph
Humidity: 93%   Direction: 120°ESE
Pressure: 29.85"   Gusts: NA
Location:  54.47°N, 2.35°W
Report Text: EGXE 290250Z AUTO 12002KT 3500 -SHRA OVC008/// 09/08 Q1011
Loading
Personal Weather Stations






























Interactive Weather Map New forecast layout! Learn more

10-Day Weather Forecast

Advertisements
Track Severe Weather on mobile